sensor_id;sensor_type;location;lat;lon;timestamp;P1;durP1;ratioP1;P2;durP2;ratioP2
59147;SDS011;44930;52.878;6.168;2023-07-28T00:01:30;28.60;;;14.57;;
59147;SDS011;44930;52.878;6.168;2023-07-28T00:03:56;32.75;;;14.75;;
59147;SDS011;44930;52.878;6.168;2023-07-28T00:06:22;37.00;;;15.35;;
59147;SDS011;44930;52.878;6.168;2023-07-28T00:08:48;27.30;;;15.23;;
59147;SDS011;44930;52.878;6.168;2023-07-28T00:11:14;36.88;;;15.35;;
59147;SDS011;44930;52.878;6.168;2023-07-28T00:13:41;24.50;;;14.00;;
59147;SDS011;44930;52.878;6.168;2023-07-28T00:16:08;33.30;;;15.35;;
59147;SDS011;44930;52.878;6.168;2023-07-28T00:18:34;32.70;;;13.50;;
59147;SDS011;44930;52.878;6.168;2023-07-28T00:21:00;31.48;;;12.77;;
59147;SDS011;44930;52.878;6.168;2023-07-28T00:23:25;23.05;;;13.20;;
59147;SDS011;44930;52.878;6.168;2023-07-28T00:25:52;36.15;;;13.98;;
59147;SDS011;44930;52.878;6.168;2023-07-28T00:28:17;31.25;;;13.70;;
59147;SDS011;44930;52.878;6.168;2023-07-28T00:30:43;24.33;;;12.27;;
59147;SDS011;44930;52.878;6.168;2023-07-28T00:33:08;30.10;;;13.57;;
59147;SDS011;44930;52.878;6.168;2023-07-28T00:35:34;33.58;;;14.68;;
59147;SDS011;44930;52.878;6.168;2023-07-28T00:37:59;23.00;;;11.93;;
59147;SDS011;44930;52.878;6.168;2023-07-28T00:40:25;32.78;;;13.63;;
59147;SDS011;44930;52.878;6.168;2023-07-28T00:42:51;25.25;;;13.10;;
59147;SDS011;44930;52.878;6.168;2023-07-28T00:45:16;27.52;;;13.57;;
59147;SDS011;44930;52.878;6.168;2023-07-28T00:47:42;33.42;;;14.82;;
59147;SDS011;44930;52.878;6.168;2023-07-28T00:50:08;37.58;;;16.52;;
59147;SDS011;44930;52.878;6.168;2023-07-28T00:52:35;36.97;;;16.13;;
59147;SDS011;44930;52.878;6.168;2023-07-28T00:55:01;30.40;;;15.52;;
59147;SDS011;44930;52.878;6.168;2023-07-28T00:57:27;37.42;;;15.38;;
59147;SDS011;44930;52.878;6.168;2023-07-28T00:59:52;44.67;;;17.42;;
59147;SDS011;44930;52.878;6.168;2023-07-28T01:02:18;30.52;;;16.98;;
59147;SDS011;44930;52.878;6.168;2023-07-28T01:04:45;39.85;;;18.30;;
59147;SDS011;44930;52.878;6.168;2023-07-28T01:10:22;55.97;;;20.45;;
59147;SDS011;44930;52.878;6.168;2023-07-28T01:12:53;41.95;;;19.60;;
59147;SDS011;44930;52.878;6.168;2023-07-28T01:15:18;37.83;;;19.13;;
59147;SDS011;44930;52.878;6.168;2023-07-28T01:17:44;37.38;;;19.23;;
59147;SDS011;44930;52.878;6.168;2023-07-28T01:20:10;39.55;;;19.17;;
59147;SDS011;44930;52.878;6.168;2023-07-28T01:23:23;45.65;;;19.55;;
59147;SDS011;44930;52.878;6.168;2023-07-28T01:28:01;35.20;;;18.83;;
59147;SDS011;44930;52.878;6.168;2023-07-28T01:30:28;43.67;;;18.85;;
59147;SDS011;44930;52.878;6.168;2023-07-28T01:32:54;33.38;;;16.25;;
59147;SDS011;44930;52.878;6.168;2023-07-28T01:35:21;36.50;;;17.50;;
59147;SDS011;44930;52.878;6.168;2023-07-28T01:37:47;38.67;;;16.48;;
59147;SDS011;44930;52.878;6.168;2023-07-28T01:40:16;41.47;;;17.33;;
59147;SDS011;44930;52.878;6.168;2023-07-28T01:42:42;30.42;;;14.85;;
59147;SDS011;44930;52.878;6.168;2023-07-28T01:45:07;38.40;;;17.00;;
59147;SDS011;44930;52.878;6.168;2023-07-28T01:47:33;30.27;;;14.50;;
59147;SDS011;44930;52.878;6.168;2023-07-28T01:49:59;33.42;;;14.13;;
59147;SDS011;44930;52.878;6.168;2023-07-28T01:52:24;31.50;;;13.75;;
59147;SDS011;44930;52.878;6.168;2023-07-28T01:54:50;29.70;;;13.65;;
59147;SDS011;44930;52.878;6.168;2023-07-28T01:57:16;27.67;;;12.95;;
59147;SDS011;44930;52.878;6.168;2023-07-28T01:59:42;30.35;;;13.73;;
59147;SDS011;44930;52.878;6.168;2023-07-28T02:02:07;37.55;;;13.90;;
59147;SDS011;44930;52.878;6.168;2023-07-28T02:04:33;30.95;;;13.05;;
59147;SDS011;44930;52.878;6.168;2023-07-28T02:06:59;24.98;;;11.63;;
59147;SDS011;44930;52.878;6.168;2023-07-28T02:09:24;27.05;;;12.48;;
59147;SDS011;44930;52.878;6.168;2023-07-28T02:11:50;30.95;;;15.13;;
59147;SDS011;44930;52.878;6.168;2023-07-28T02:14:15;30.42;;;14.38;;
59147;SDS011;44930;52.878;6.168;2023-07-28T02:16:41;35.80;;;13.77;;
59147;SDS011;44930;52.878;6.168;2023-07-28T02:19:06;30.67;;;13.40;;
59147;SDS011;44930;52.878;6.168;2023-07-28T02:21:32;29.20;;;13.13;;
59147;SDS011;44930;52.878;6.168;2023-07-28T02:23:58;28.40;;;13.77;;
59147;SDS011;44930;52.878;6.168;2023-07-28T02:26:24;27.48;;;13.60;;
59147;SDS011;44930;52.878;6.168;2023-07-28T02:28:50;28.10;;;12.60;;
59147;SDS011;44930;52.878;6.168;2023-07-28T02:31:16;27.00;;;13.23;;
59147;SDS011;44930;52.878;6.168;2023-07-28T02:33:41;24.65;;;12.25;;
59147;SDS011;44930;52.878;6.168;2023-07-28T02:36:07;29.90;;;14.00;;
59147;SDS011;44930;52.878;6.168;2023-07-28T02:38:32;33.85;;;15.10;;
59147;SDS011;44930;52.878;6.168;2023-07-28T02:40:58;29.60;;;14.25;;
59147;SDS011;44930;52.878;6.168;2023-07-28T02:43:23;33.45;;;15.60;;
59147;SDS011;44930;52.878;6.168;2023-07-28T02:45:55;31.73;;;15.05;;
59147;SDS011;44930;52.878;6.168;2023-07-28T02:48:24;36.53;;;16.52;;
59147;SDS011;44930;52.878;6.168;2023-07-28T02:50:50;27.80;;;14.55;;
59147;SDS011;44930;52.878;6.168;2023-07-28T02:53:16;30.98;;;13.98;;
59147;SDS011;44930;52.878;6.168;2023-07-28T02:55:42;28.95;;;13.70;;
59147;SDS011;44930;52.878;6.168;2023-07-28T02:58:08;30.13;;;13.63;;
59147;SDS011;44930;52.878;6.168;2023-07-28T03:00:36;31.65;;;13.88;;
59147;SDS011;44930;52.878;6.168;2023-07-28T03:03:05;24.35;;;14.30;;
59147;SDS011;44930;52.878;6.168;2023-07-28T03:05:32;27.63;;;12.63;;
59147;SDS011;44930;52.878;6.168;2023-07-28T03:07:58;32.47;;;12.98;;
59147;SDS011;44930;52.878;6.168;2023-07-28T03:10:23;23.70;;;12.98;;
59147;SDS011;44930;52.878;6.168;2023-07-28T03:12:49;30.27;;;13.45;;
59147;SDS011;44930;52.878;6.168;2023-07-28T03:15:15;30.05;;;13.27;;
59147;SDS011;44930;52.878;6.168;2023-07-28T03:17:41;22.85;;;13.68;;
59147;SDS011;44930;52.878;6.168;2023-07-28T03:20:06;34.10;;;13.93;;
59147;SDS011;44930;52.878;6.168;2023-07-28T03:22:32;29.38;;;12.88;;
59147;SDS011;44930;52.878;6.168;2023-07-28T03:24:58;29.10;;;13.40;;
59147;SDS011;44930;52.878;6.168;2023-07-28T03:27:23;25.35;;;12.18;;
59147;SDS011;44930;52.878;6.168;2023-07-28T03:29:49;30.17;;;12.63;;
59147;SDS011;44930;52.878;6.168;2023-07-28T03:32:15;34.95;;;13.00;;
59147;SDS011;44930;52.878;6.168;2023-07-28T03:34:41;31.02;;;11.75;;
59147;SDS011;44930;52.878;6.168;2023-07-28T03:37:07;29.02;;;11.32;;
59147;SDS011;44930;52.878;6.168;2023-07-28T03:39:32;25.08;;;11.77;;
59147;SDS011;44930;52.878;6.168;2023-07-28T03:41:58;32.25;;;11.80;;
59147;SDS011;44930;52.878;6.168;2023-07-28T03:44:24;32.97;;;12.65;;
59147;SDS011;44930;52.878;6.168;2023-07-28T03:46:49;32.60;;;12.38;;
59147;SDS011;44930;52.878;6.168;2023-07-28T03:49:15;25.08;;;11.70;;
59147;SDS011;44930;52.878;6.168;2023-07-28T03:51:40;25.05;;;12.20;;
59147;SDS011;44930;52.878;6.168;2023-07-28T03:54:06;28.58;;;11.93;;
59147;SDS011;44930;52.878;6.168;2023-07-28T03:56:32;34.53;;;13.10;;
59147;SDS011;44930;52.878;6.168;2023-07-28T03:58:57;25.85;;;11.50;;
59147;SDS011;44930;52.878;6.168;2023-07-28T04:01:23;27.38;;;12.23;;
59147;SDS011;44930;52.878;6.168;2023-07-28T04:03:49;25.55;;;13.30;;
59147;SDS011;44930;52.878;6.168;2023-07-28T04:06:15;25.90;;;11.68;;
59147;SDS011;44930;52.878;6.168;2023-07-28T04:08:40;26.45;;;11.63;;
59147;SDS011;44930;52.878;6.168;2023-07-28T04:11:06;27.33;;;11.73;;
59147;SDS011;44930;52.878;6.168;2023-07-28T04:13:33;28.27;;;12.02;;
59147;SDS011;44930;52.878;6.168;2023-07-28T04:15:59;31.55;;;11.95;;
59147;SDS011;44930;52.878;6.168;2023-07-28T04:18:25;28.42;;;12.70;;
59147;SDS011;44930;52.878;6.168;2023-07-28T04:20:50;28.65;;;12.88;;
59147;SDS011;44930;52.878;6.168;2023-07-28T04:23:16;21.25;;;11.75;;
59147;SDS011;44930;52.878;6.168;2023-07-28T04:25:41;30.20;;;12.25;;
59147;SDS011;44930;52.878;6.168;2023-07-28T04:28:07;27.10;;;11.20;;
59147;SDS011;44930;52.878;6.168;2023-07-28T04:30:32;23.25;;;11.30;;
59147;SDS011;44930;52.878;6.168;2023-07-28T04:32:58;31.30;;;12.40;;
59147;SDS011;44930;52.878;6.168;2023-07-28T04:35:23;23.85;;;11.40;;
59147;SDS011;44930;52.878;6.168;2023-07-28T04:37:49;29.55;;;12.70;;
59147;SDS011;44930;52.878;6.168;2023-07-28T04:40:14;27.13;;;11.82;;
59147;SDS011;44930;52.878;6.168;2023-07-28T04:42:40;30.15;;;13.77;;
59147;SDS011;44930;52.878;6.168;2023-07-28T04:45:06;27.58;;;11.80;;
59147;SDS011;44930;52.878;6.168;2023-07-28T04:47:32;28.85;;;12.05;;
59147;SDS011;44930;52.878;6.168;2023-07-28T04:49:57;34.95;;;12.35;;
59147;SDS011;44930;52.878;6.168;2023-07-28T04:52:23;28.23;;;14.00;;
59147;SDS011;44930;52.878;6.168;2023-07-28T04:54:49;31.35;;;12.35;;
59147;SDS011;44930;52.878;6.168;2023-07-28T04:57:14;27.02;;;11.60;;
59147;SDS011;44930;52.878;6.168;2023-07-28T04:59:40;28.23;;;12.18;;
59147;SDS011;44930;52.878;6.168;2023-07-28T05:02:06;35.10;;;13.52;;
59147;SDS011;44930;52.878;6.168;2023-07-28T05:04:31;29.40;;;12.68;;
59147;SDS011;44930;52.878;6.168;2023-07-28T05:06:57;22.55;;;12.40;;
59147;SDS011;44930;52.878;6.168;2023-07-28T05:09:22;27.15;;;12.00;;
59147;SDS011;44930;52.878;6.168;2023-07-28T05:11:48;21.83;;;12.38;;
59147;SDS011;44930;52.878;6.168;2023-07-28T05:14:14;22.67;;;12.30;;
59147;SDS011;44930;52.878;6.168;2023-07-28T05:16:39;21.10;;;12.07;;
59147;SDS011;44930;52.878;6.168;2023-07-28T05:19:05;30.08;;;12.90;;
59147;SDS011;44930;52.878;6.168;2023-07-28T05:21:32;25.90;;;13.40;;
59147;SDS011;44930;52.878;6.168;2023-07-28T05:23:58;32.00;;;13.93;;
59147;SDS011;44930;52.878;6.168;2023-07-28T05:26:23;23.85;;;11.90;;
59147;SDS011;44930;52.878;6.168;2023-07-28T05:28:49;24.95;;;12.05;;
59147;SDS011;44930;52.878;6.168;2023-07-28T05:31:15;27.45;;;13.23;;
59147;SDS011;44930;52.878;6.168;2023-07-28T05:33:41;23.08;;;12.88;;
59147;SDS011;44930;52.878;6.168;2023-07-28T05:36:06;28.70;;;13.88;;
59147;SDS011;44930;52.878;6.168;2023-07-28T05:38:32;33.10;;;14.88;;
59147;SDS011;44930;52.878;6.168;2023-07-28T05:40:58;31.40;;;12.23;;
59147;SDS011;44930;52.878;6.168;2023-07-28T05:43:28;25.08;;;13.68;;
59147;SDS011;44930;52.878;6.168;2023-07-28T05:45:54;25.95;;;12.57;;
59147;SDS011;44930;52.878;6.168;2023-07-28T05:48:21;24.02;;;12.50;;
59147;SDS011;44930;52.878;6.168;2023-07-28T05:50:47;19.02;;;12.15;;
59147;SDS011;44930;52.878;6.168;2023-07-28T05:53:13;27.67;;;12.57;;
59147;SDS011;44930;52.878;6.168;2023-07-28T05:55:39;21.00;;;13.45;;
59147;SDS011;44930;52.878;6.168;2023-07-28T05:58:05;26.85;;;12.82;;
59147;SDS011;44930;52.878;6.168;2023-07-28T06:00:30;22.40;;;11.35;;
59147;SDS011;44930;52.878;6.168;2023-07-28T06:02:56;23.63;;;11.75;;
59147;SDS011;44930;52.878;6.168;2023-07-28T06:05:22;29.15;;;12.02;;
59147;SDS011;44930;52.878;6.168;2023-07-28T06:07:48;21.58;;;12.23;;
59147;SDS011;44930;52.878;6.168;2023-07-28T06:10:13;26.15;;;12.18;;
59147;SDS011;44930;52.878;6.168;2023-07-28T06:12:39;23.48;;;11.55;;
59147;SDS011;44930;52.878;6.168;2023-07-28T06:15:05;24.80;;;11.32;;
59147;SDS011;44930;52.878;6.168;2023-07-28T06:17:31;20.35;;;11.02;;
59147;SDS011;44930;52.878;6.168;2023-07-28T06:19:58;22.08;;;12.30;;
59147;SDS011;44930;52.878;6.168;2023-07-28T06:22:23;21.70;;;12.52;;
59147;SDS011;44930;52.878;6.168;2023-07-28T06:24:49;24.70;;;13.60;;
59147;SDS011;44930;52.878;6.168;2023-07-28T06:27:15;17.23;;;11.82;;
59147;SDS011;44930;52.878;6.168;2023-07-28T06:29:41;25.23;;;13.43;;
59147;SDS011;44930;52.878;6.168;2023-07-28T06:32:06;21.83;;;13.95;;
59147;SDS011;44930;52.878;6.168;2023-07-28T06:34:32;24.63;;;13.52;;
59147;SDS011;44930;52.878;6.168;2023-07-28T06:36:58;21.05;;;13.32;;
59147;SDS011;44930;52.878;6.168;2023-07-28T06:39:23;23.85;;;12.60;;
59147;SDS011;44930;52.878;6.168;2023-07-28T06:41:49;17.95;;;12.50;;
59147;SDS011;44930;52.878;6.168;2023-07-28T06:44:15;13.85;;;9.93;;
59147;SDS011;44930;52.878;6.168;2023-07-28T06:46:42;17.42;;;9.65;;
59147;SDS011;44930;52.878;6.168;2023-07-28T06:49:08;16.35;;;10.25;;
59147;SDS011;44930;52.878;6.168;2023-07-28T06:51:33;15.65;;;9.27;;
59147;SDS011;44930;52.878;6.168;2023-07-28T06:53:59;19.17;;;9.82;;
59147;SDS011;44930;52.878;6.168;2023-07-28T06:56:24;18.15;;;11.43;;
59147;SDS011;44930;52.878;6.168;2023-07-28T06:58:50;14.40;;;10.43;;
59147;SDS011;44930;52.878;6.168;2023-07-28T07:01:16;16.02;;;10.35;;
59147;SDS011;44930;52.878;6.168;2023-07-28T07:03:43;18.50;;;11.65;;
59147;SDS011;44930;52.878;6.168;2023-07-28T07:06:08;21.83;;;10.70;;
59147;SDS011;44930;52.878;6.168;2023-07-28T07:08:34;20.67;;;10.18;;
59147;SDS011;44930;52.878;6.168;2023-07-28T07:11:00;27.25;;;11.10;;
59147;SDS011;44930;52.878;6.168;2023-07-28T07:13:25;17.33;;;11.63;;
59147;SDS011;44930;52.878;6.168;2023-07-28T07:15:51;18.45;;;11.25;;
59147;SDS011;44930;52.878;6.168;2023-07-28T07:18:17;19.33;;;11.90;;
59147;SDS011;44930;52.878;6.168;2023-07-28T07:20:43;18.98;;;11.68;;
59147;SDS011;44930;52.878;6.168;2023-07-28T07:23:08;13.50;;;11.80;;
59147;SDS011;44930;52.878;6.168;2023-07-28T07:25:34;16.58;;;10.55;;
59147;SDS011;44930;52.878;6.168;2023-07-28T07:27:59;19.35;;;11.68;;
59147;SDS011;44930;52.878;6.168;2023-07-28T07:30:25;14.75;;;11.38;;
59147;SDS011;44930;52.878;6.168;2023-07-28T07:32:50;17.25;;;11.07;;
59147;SDS011;44930;52.878;6.168;2023-07-28T07:35:16;18.27;;;10.38;;
59147;SDS011;44930;52.878;6.168;2023-07-28T07:37:42;16.45;;;9.40;;
59147;SDS011;44930;52.878;6.168;2023-07-28T07:40:08;16.48;;;10.07;;
59147;SDS011;44930;52.878;6.168;2023-07-28T07:42:46;16.90;;;10.52;;
59147;SDS011;44930;52.878;6.168;2023-07-28T07:45:13;18.83;;;10.45;;
59147;SDS011;44930;52.878;6.168;2023-07-28T07:47:39;14.15;;;10.52;;
59147;SDS011;44930;52.878;6.168;2023-07-28T07:50:08;14.75;;;9.18;;
59147;SDS011;44930;52.878;6.168;2023-07-28T07:52:36;15.32;;;9.38;;
59147;SDS011;44930;52.878;6.168;2023-07-28T07:55:02;15.77;;;10.40;;
59147;SDS011;44930;52.878;6.168;2023-07-28T07:57:29;18.48;;;9.13;;
59147;SDS011;44930;52.878;6.168;2023-07-28T07:59:57;16.13;;;8.65;;
59147;SDS011;44930;52.878;6.168;2023-07-28T08:02:23;15.35;;;9.23;;
59147;SDS011;44930;52.878;6.168;2023-07-28T08:04:48;16.35;;;8.38;;
59147;SDS011;44930;52.878;6.168;2023-07-28T08:07:14;17.60;;;9.02;;
59147;SDS011;44930;52.878;6.168;2023-07-28T08:09:41;15.93;;;8.60;;
59147;SDS011;44930;52.878;6.168;2023-07-28T08:12:07;10.25;;;7.68;;
59147;SDS011;44930;52.878;6.168;2023-07-28T08:14:33;11.05;;;7.57;;
59147;SDS011;44930;52.878;6.168;2023-07-28T08:16:59;11.20;;;7.25;;
59147;SDS011;44930;52.878;6.168;2023-07-28T08:19:24;9.27;;;7.15;;
59147;SDS011;44930;52.878;6.168;2023-07-28T08:21:50;13.68;;;5.80;;
59147;SDS011;44930;52.878;6.168;2023-07-28T08:24:16;11.38;;;6.88;;
59147;SDS011;44930;52.878;6.168;2023-07-28T08:26:42;17.48;;;8.15;;
59147;SDS011;44930;52.878;6.168;2023-07-28T08:29:07;11.70;;;6.82;;
59147;SDS011;44930;52.878;6.168;2023-07-28T08:31:33;13.85;;;6.40;;
59147;SDS011;44930;52.878;6.168;2023-07-28T08:33:58;9.90;;;6.43;;
59147;SDS011;44930;52.878;6.168;2023-07-28T08:36:24;15.15;;;5.82;;
59147;SDS011;44930;52.878;6.168;2023-07-28T08:38:49;9.95;;;6.22;;
59147;SDS011;44930;52.878;6.168;2023-07-28T08:41:15;9.13;;;6.05;;
59147;SDS011;44930;52.878;6.168;2023-07-28T08:43:41;7.95;;;5.50;;
59147;SDS011;44930;52.878;6.168;2023-07-28T08:46:07;7.78;;;5.00;;
59147;SDS011;44930;52.878;6.168;2023-07-28T08:48:33;12.48;;;5.55;;
59147;SDS011;44930;52.878;6.168;2023-07-28T08:50:58;12.32;;;6.13;;
59147;SDS011;44930;52.878;6.168;2023-07-28T08:53:24;14.45;;;5.63;;
59147;SDS011;44930;52.878;6.168;2023-07-28T08:55:50;7.57;;;5.03;;
59147;SDS011;44930;52.878;6.168;2023-07-28T08:58:20;9.70;;;5.45;;
59147;SDS011;44930;52.878;6.168;2023-07-28T09:00:47;9.68;;;5.38;;
59147;SDS011;44930;52.878;6.168;2023-07-28T09:03:19;12.90;;;5.82;;
59147;SDS011;44930;52.878;6.168;2023-07-28T09:05:46;9.40;;;4.43;;
59147;SDS011;44930;52.878;6.168;2023-07-28T09:08:12;9.32;;;5.10;;
59147;SDS011;44930;52.878;6.168;2023-07-28T09:15:45;7.22;;;4.80;;
59147;SDS011;44930;52.878;6.168;2023-07-28T09:18:12;9.13;;;5.03;;
59147;SDS011;44930;52.878;6.168;2023-07-28T09:20:39;7.47;;;5.07;;
59147;SDS011;44930;52.878;6.168;2023-07-28T09:23:06;8.77;;;5.15;;
59147;SDS011;44930;52.878;6.168;2023-07-28T09:25:33;7.10;;;5.88;;
59147;SDS011;44930;52.878;6.168;2023-07-28T09:28:02;6.88;;;5.75;;
59147;SDS011;44930;52.878;6.168;2023-07-28T09:30:43;10.18;;;6.78;;
59147;SDS011;44930;52.878;6.168;2023-07-28T09:33:10;10.77;;;5.88;;
59147;SDS011;44930;52.878;6.168;2023-07-28T09:35:36;9.65;;;6.22;;
59147;SDS011;44930;52.878;6.168;2023-07-28T09:38:13;9.80;;;6.07;;
59147;SDS011;44930;52.878;6.168;2023-07-28T09:40:40;9.93;;;6.32;;
59147;SDS011;44930;52.878;6.168;2023-07-28T09:43:06;8.35;;;5.40;;
59147;SDS011;44930;52.878;6.168;2023-07-28T09:45:32;10.77;;;5.50;;
59147;SDS011;44930;52.878;6.168;2023-07-28T09:47:59;9.43;;;6.70;;
59147;SDS011;44930;52.878;6.168;2023-07-28T09:50:27;10.18;;;6.60;;
59147;SDS011;44930;52.878;6.168;2023-07-28T09:52:58;8.15;;;5.68;;
59147;SDS011;44930;52.878;6.168;2023-07-28T09:55:26;9.77;;;6.03;;
59147;SDS011;44930;52.878;6.168;2023-07-28T09:57:54;12.50;;;7.47;;
59147;SDS011;44930;52.878;6.168;2023-07-28T10:00:21;9.30;;;8.00;;
59147;SDS011;44930;52.878;6.168;2023-07-28T10:02:47;12.93;;;8.40;;
59147;SDS011;44930;52.878;6.168;2023-07-28T10:05:14;13.40;;;8.07;;
59147;SDS011;44930;52.878;6.168;2023-07-28T10:07:41;9.90;;;6.93;;
59147;SDS011;44930;52.878;6.168;2023-07-28T10:10:11;13.10;;;8.25;;
59147;SDS011;44930;52.878;6.168;2023-07-28T10:12:48;10.90;;;8.35;;
59147;SDS011;44930;52.878;6.168;2023-07-28T10:15:16;9.27;;;7.57;;
59147;SDS011;44930;52.878;6.168;2023-07-28T10:17:54;9.82;;;7.28;;
59147;SDS011;44930;52.878;6.168;2023-07-28T10:20:30;11.82;;;8.45;;
59147;SDS011;44930;52.878;6.168;2023-07-28T10:23:12;8.77;;;7.88;;
59147;SDS011;44930;52.878;6.168;2023-07-28T10:25:40;11.60;;;8.07;;
59147;SDS011;44930;52.878;6.168;2023-07-28T10:28:07;9.65;;;7.95;;
59147;SDS011;44930;52.878;6.168;2023-07-28T10:30:51;13.45;;;8.65;;
59147;SDS011;44930;52.878;6.168;2023-07-28T10:33:28;11.10;;;8.38;;
59147;SDS011;44930;52.878;6.168;2023-07-28T10:35:59;12.70;;;9.30;;
59147;SDS011;44930;52.878;6.168;2023-07-28T10:38:35;12.20;;;8.38;;
59147;SDS011;44930;52.878;6.168;2023-07-28T10:41:05;11.50;;;8.07;;
59147;SDS011;44930;52.878;6.168;2023-07-28T10:43:35;8.18;;;6.28;;
59147;SDS011;44930;52.878;6.168;2023-07-28T10:46:01;10.15;;;7.43;;
59147;SDS011;44930;52.878;6.168;2023-07-28T10:48:27;10.77;;;8.45;;
59147;SDS011;44930;52.878;6.168;2023-07-28T10:50:52;10.15;;;8.05;;
59147;SDS011;44930;52.878;6.168;2023-07-28T10:53:18;15.00;;;8.57;;
59147;SDS011;44930;52.878;6.168;2023-07-28T10:55:44;11.20;;;7.75;;
59147;SDS011;44930;52.878;6.168;2023-07-28T10:58:10;9.77;;;7.82;;
59147;SDS011;44930;52.878;6.168;2023-07-28T11:00:36;10.98;;;8.77;;
59147;SDS011;44930;52.878;6.168;2023-07-28T11:03:01;10.32;;;9.00;;
59147;SDS011;44930;52.878;6.168;2023-07-28T11:05:28;14.30;;;9.63;;
59147;SDS011;44930;52.878;6.168;2023-07-28T11:07:58;10.00;;;8.55;;
59147;SDS011;44930;52.878;6.168;2023-07-28T11:10:27;10.05;;;7.25;;
59147;SDS011;44930;52.878;6.168;2023-07-28T11:12:56;9.43;;;6.57;;
59147;SDS011;44930;52.878;6.168;2023-07-28T11:15:31;11.40;;;8.25;;
59147;SDS011;44930;52.878;6.168;2023-07-28T11:17:58;14.00;;;7.93;;
59147;SDS011;44930;52.878;6.168;2023-07-28T11:20:24;13.95;;;9.52;;
59147;SDS011;44930;52.878;6.168;2023-07-28T11:22:52;15.55;;;8.98;;
59147;SDS011;44930;52.878;6.168;2023-07-28T11:25:20;12.30;;;8.20;;
59147;SDS011;44930;52.878;6.168;2023-07-28T11:27:46;13.07;;;7.82;;
59147;SDS011;44930;52.878;6.168;2023-07-28T11:30:12;10.13;;;8.43;;
59147;SDS011;44930;52.878;6.168;2023-07-28T11:32:41;12.20;;;9.18;;
59147;SDS011;44930;52.878;6.168;2023-07-28T11:35:08;9.68;;;8.20;;
59147;SDS011;44930;52.878;6.168;2023-07-28T11:37:36;12.00;;;9.20;;
59147;SDS011;44930;52.878;6.168;2023-07-28T11:40:03;13.30;;;8.02;;
59147;SDS011;44930;52.878;6.168;2023-07-28T11:42:54;10.35;;;7.78;;
59147;SDS011;44930;52.878;6.168;2023-07-28T11:45:20;12.45;;;9.00;;
59147;SDS011;44930;52.878;6.168;2023-07-28T11:47:59;9.13;;;8.20;;
59147;SDS011;44930;52.878;6.168;2023-07-28T11:50:34;10.90;;;8.10;;
59147;SDS011;44930;52.878;6.168;2023-07-28T11:53:03;14.45;;;8.65;;
59147;SDS011;44930;52.878;6.168;2023-07-28T11:55:31;10.95;;;9.20;;
59147;SDS011;44930;52.878;6.168;2023-07-28T11:57:57;8.77;;;6.78;;
59147;SDS011;44930;52.878;6.168;2023-07-28T12:00:30;8.95;;;7.68;;
59147;SDS011;44930;52.878;6.168;2023-07-28T12:03:11;6.72;;;5.85;;
59147;SDS011;44930;52.878;6.168;2023-07-28T12:05:41;7.80;;;5.50;;
59147;SDS011;44930;52.878;6.168;2023-07-28T12:08:38;8.02;;;5.95;;
59147;SDS011;44930;52.878;6.168;2023-07-28T12:11:04;7.65;;;6.40;;
59147;SDS011;44930;52.878;6.168;2023-07-28T12:13:31;8.63;;;7.22;;
59147;SDS011;44930;52.878;6.168;2023-07-28T12:15:57;11.48;;;8.35;;
59147;SDS011;44930;52.878;6.168;2023-07-28T12:18:22;12.00;;;8.15;;
59147;SDS011;44930;52.878;6.168;2023-07-28T12:20:55;11.73;;;8.20;;
59147;SDS011;44930;52.878;6.168;2023-07-28T12:23:21;11.15;;;9.15;;
59147;SDS011;44930;52.878;6.168;2023-07-28T12:25:48;13.55;;;9.50;;
59147;SDS011;44930;52.878;6.168;2023-07-28T12:28:15;13.10;;;9.80;;
59147;SDS011;44930;52.878;6.168;2023-07-28T12:30:41;17.50;;;9.10;;
59147;SDS011;44930;52.878;6.168;2023-07-28T12:33:06;12.73;;;9.25;;
59147;SDS011;44930;52.878;6.168;2023-07-28T12:35:33;10.40;;;7.35;;
59147;SDS011;44930;52.878;6.168;2023-07-28T12:38:02;7.82;;;6.03;;
59147;SDS011;44930;52.878;6.168;2023-07-28T12:40:30;9.40;;;6.68;;
59147;SDS011;44930;52.878;6.168;2023-07-28T12:42:56;8.15;;;6.45;;
59147;SDS011;44930;52.878;6.168;2023-07-28T12:45:23;11.60;;;6.43;;
59147;SDS011;44930;52.878;6.168;2023-07-28T12:47:51;9.43;;;7.20;;
59147;SDS011;44930;52.878;6.168;2023-07-28T12:50:18;8.90;;;6.95;;
59147;SDS011;44930;52.878;6.168;2023-07-28T12:52:43;8.90;;;7.55;;
59147;SDS011;44930;52.878;6.168;2023-07-28T12:55:09;11.52;;;7.25;;
59147;SDS011;44930;52.878;6.168;2023-07-28T12:57:35;13.35;;;8.73;;
59147;SDS011;44930;52.878;6.168;2023-07-28T13:00:00;8.85;;;6.40;;
59147;SDS011;44930;52.878;6.168;2023-07-28T13:02:26;6.85;;;5.78;;
59147;SDS011;44930;52.878;6.168;2023-07-28T13:04:51;8.93;;;7.38;;
59147;SDS011;44930;52.878;6.168;2023-07-28T13:07:17;14.88;;;7.95;;
59147;SDS011;44930;52.878;6.168;2023-07-28T13:09:43;10.45;;;7.72;;
59147;SDS011;44930;52.878;6.168;2023-07-28T13:12:09;10.85;;;8.50;;
59147;SDS011;44930;52.878;6.168;2023-07-28T13:14:34;8.57;;;7.68;;
59147;SDS011;44930;52.878;6.168;2023-07-28T13:17:00;10.05;;;8.48;;
59147;SDS011;44930;52.878;6.168;2023-07-28T13:19:26;8.88;;;7.78;;
59147;SDS011;44930;52.878;6.168;2023-07-28T13:21:51;13.55;;;8.30;;
59147;SDS011;44930;52.878;6.168;2023-07-28T13:24:17;11.63;;;8.40;;
59147;SDS011;44930;52.878;6.168;2023-07-28T13:26:42;11.02;;;9.68;;
59147;SDS011;44930;52.878;6.168;2023-07-28T13:29:08;10.48;;;9.15;;
59147;SDS011;44930;52.878;6.168;2023-07-28T13:31:34;11.20;;;10.10;;
59147;SDS011;44930;52.878;6.168;2023-07-28T13:34:00;11.63;;;8.38;;
59147;SDS011;44930;52.878;6.168;2023-07-28T13:36:25;10.88;;;9.07;;
59147;SDS011;44930;52.878;6.168;2023-07-28T13:38:51;11.02;;;8.13;;
59147;SDS011;44930;52.878;6.168;2023-07-28T13:41:16;11.43;;;9.25;;
59147;SDS011;44930;52.878;6.168;2023-07-28T13:43:42;10.00;;;8.13;;
59147;SDS011;44930;52.878;6.168;2023-07-28T13:46:07;10.35;;;7.88;;
59147;SDS011;44930;52.878;6.168;2023-07-28T13:48:33;11.10;;;8.60;;
59147;SDS011;44930;52.878;6.168;2023-07-28T13:51:01;10.98;;;8.30;;
59147;SDS011;44930;52.878;6.168;2023-07-28T13:53:27;11.13;;;9.07;;
59147;SDS011;44930;52.878;6.168;2023-07-28T13:55:53;14.60;;;9.82;;
59147;SDS011;44930;52.878;6.168;2023-07-28T13:58:19;10.93;;;9.23;;
59147;SDS011;44930;52.878;6.168;2023-07-28T14:00:46;12.10;;;9.63;;
59147;SDS011;44930;52.878;6.168;2023-07-28T14:03:11;10.65;;;8.35;;
59147;SDS011;44930;52.878;6.168;2023-07-28T14:05:37;12.70;;;8.18;;
59147;SDS011;44930;52.878;6.168;2023-07-28T14:08:03;10.43;;;8.05;;
59147;SDS011;44930;52.878;6.168;2023-07-28T14:10:29;9.52;;;8.52;;
59147;SDS011;44930;52.878;6.168;2023-07-28T14:12:57;9.25;;;7.15;;
59147;SDS011;44930;52.878;6.168;2023-07-28T14:15:22;9.15;;;7.15;;
59147;SDS011;44930;52.878;6.168;2023-07-28T14:17:48;10.38;;;8.15;;
59147;SDS011;44930;52.878;6.168;2023-07-28T14:20:14;13.88;;;8.65;;
59147;SDS011;44930;52.878;6.168;2023-07-28T14:22:39;9.65;;;7.18;;
59147;SDS011;44930;52.878;6.168;2023-07-28T14:25:05;9.65;;;7.00;;
59147;SDS011;44930;52.878;6.168;2023-07-28T14:27:31;8.75;;;7.25;;
59147;SDS011;44930;52.878;6.168;2023-07-28T14:29:56;10.00;;;7.80;;
59147;SDS011;44930;52.878;6.168;2023-07-28T14:32:22;8.13;;;7.32;;
59147;SDS011;44930;52.878;6.168;2023-07-28T14:34:47;10.15;;;8.32;;
59147;SDS011;44930;52.878;6.168;2023-07-28T14:37:13;11.93;;;8.60;;
59147;SDS011;44930;52.878;6.168;2023-07-28T14:39:38;11.18;;;8.70;;